This is the latest recevied weather packets stored in our database for station/object SV4FHR-2. If no packets are shown the sender has not sent any weather packets the latest 10 day(s).
| Time | Temp. | Humidity | Pressure | Rain* | Wind** | Luminosity | Snow |
|---|---|---|---|---|---|---|---|
| 1777996980 | 26.11° C | 45% | 1011.1 hPa | 0 mm | - | - | - |
| 1777996680 | 26.11° C | 44% | 1011.3 hPa | 0 mm | - | - | - |
| 1777996380 | 25.56° C | 43% | 1011.3 hPa | 0 mm | - | - | - |
| 1777996080 | 8.33° C | 87% | 1015.4 hPa | 0 mm | - | - | - |
| 1777933049 | 8.33° C | 86% | 1015.4 hPa | 0 mm | - | - | - |
| 1777932984 | 8.33° C | 86% | 1015.4 hPa | 0 mm | - | - | - |
| 1777932684 | 8.33° C | 86% | 1015.6 hPa | 0 mm | - | - | - |
| 1777932383 | 8.33° C | 85% | 1015.3 hPa | 0 mm | - | - | - |
| 1777932083 | 8.33° C | 85% | 1015.5 hPa | 0 mm | - | - | - |
| 1777931783 | 8.89° C | 84% | 1015.4 hPa | 0 mm | - | - | - |
| 1777931483 | 8.89° C | 83% | 1015.4 hPa | 0 mm | - | - | - |
| 1777931183 | 9.44° C | 82% | 1015.4 hPa | 0 mm | - | - | - |
| 1777930884 | 10° C | 80% | 1015.6 hPa | 0 mm | - | - | - |
| 1777930584 | 10.56° C | 79% | 1015.6 hPa | 0 mm | - | - | - |
| 1777930284 | 10.56° C | 78% | 1015.3 hPa | 0 mm | - | - | - |
| 1777929984 | 10° C | 79% | 1015.4 hPa | 0 mm | - | - | - |
| 1777929684 | 10.56° C | 78% | 1015.3 hPa | 0 mm | - | - | - |
| 1777929384 | 11.11° C | 77% | 1015.2 hPa | 0 mm | - | - | - |
| 1777929084 | 10.56° C | 77% | 1015.3 hPa | 0 mm | - | - | - |
| 1777928784 | 10.56° C | 80% | 1015.3 hPa | 0 mm | - | - | - |
| 1777928484 | 10° C | 81% | 1015.3 hPa | 0 mm | - | - | - |
| 1777928184 | 10° C | 81% | 1015.4 hPa | 0 mm | - | - | - |
| 1777927884 | 10° C | 82% | 1015.4 hPa | 0 mm | - | - | - |
| 1777927584 | 10.56° C | 81% | 1015.4 hPa | 0 mm | - | - | - |
| 1777927284 | 10° C | 83% | 1015.6 hPa | 0 mm | - | - | - |
* Rain latest hour (hover to see other rain measurements)
** Current wind speed in m/s (hover to see current wind gust speed)